createdAt,value
2019-04-22T00:01:19.484Z,63.30
2019-04-22T00:03:50.650Z,64.10
2019-04-22T00:06:30.910Z,64.50
2019-04-22T00:09:07.056Z,65.00
2019-04-22T00:14:00.769Z,64.90
2019-04-22T00:16:43.240Z,64.00
2019-04-22T00:21:35.219Z,63.70
2019-04-22T00:23:59.746Z,64.30
2019-04-22T00:26:29.092Z,65.00
2019-04-22T00:29:08.106Z,66.30
2019-04-22T00:31:21.289Z,67.20
2019-04-22T00:33:48.105Z,68.40
2019-04-22T00:36:16.719Z,68.40
2019-04-22T00:38:51.670Z,66.90
2019-04-22T00:41:21.031Z,66.20
2019-04-22T00:43:48.082Z,67.20
2019-04-22T00:46:19.640Z,68.00
2019-04-22T00:49:07.076Z,68.90
2019-04-22T00:51:22.577Z,68.80
2019-04-22T00:53:49.450Z,71.10
2019-04-22T00:56:24.326Z,70.80
2019-04-22T00:59:06.943Z,71.30
2019-04-22T01:04:05.611Z,70.80
2019-04-22T01:06:29.096Z,70.40
2019-04-22T01:08:57.912Z,71.90
2019-04-22T01:13:52.125Z,72.70
2019-04-22T01:16:22.693Z,72.60
2019-04-22T01:18:49.048Z,72.40
2019-04-22T01:23:53.248Z,70.80
2019-04-22T01:26:15.884Z,71.80
2019-04-22T01:28:39.887Z,72.70
2019-04-22T01:31:03.820Z,72.80
2019-04-22T01:33:33.378Z,74.20
2019-04-22T01:36:15.560Z,76.80
2019-04-22T01:38:45.361Z,77.60
2019-04-22T01:41:26.638Z,81.50
2019-04-22T01:44:04.226Z,78.40
2019-04-22T01:46:29.943Z,80.90
2019-04-22T01:48:52.497Z,79.80
2019-04-22T01:51:12.255Z,82.30
2019-04-22T01:53:54.210Z,83.50
2019-04-22T01:56:20.479Z,82.10
2019-04-22T01:58:38.240Z,84.30
2019-04-22T02:01:30.666Z,80.00
2019-04-22T02:04:01.326Z,79.70
2019-04-22T02:06:35.099Z,82.30
2019-04-22T02:09:09.472Z,84.40
2019-04-22T02:11:41.756Z,83.60
2019-04-22T02:14:04.873Z,85.50
2019-04-22T02:19:20.709Z,86.30
2019-04-22T02:21:38.208Z,88.00
2019-04-22T02:24:09.723Z,87.00
2019-04-22T02:26:47.812Z,85.50
2019-04-22T02:29:06.633Z,83.90
2019-04-22T02:31:44.898Z,85.40
2019-04-22T02:34:35.106Z,85.50
2019-04-22T02:42:03.195Z,90.30
2019-04-22T02:44:30.757Z,88.70
2019-04-22T02:47:15.758Z,89.80
2019-04-22T02:51:52.225Z,90.90
2019-04-22T02:57:10.172Z,88.50
2019-04-22T02:59:52.581Z,90.40
2019-04-22T03:02:07.227Z,89.80
2019-04-22T03:04:28.371Z,89.00
2019-04-22T03:06:51.219Z,88.30
2019-04-22T03:09:30.980Z,88.80
2019-04-22T03:12:14.263Z,88.60
2019-04-22T03:14:22.862Z,90.80
2019-04-22T03:16:57.449Z,90.60
2019-04-22T03:19:34.321Z,91.20
2019-04-22T03:22:05.800Z,91.40
2019-04-22T03:26:59.038Z,93.60
2019-04-22T03:29:28.729Z,94.60
2019-04-22T03:32:59.378Z,94.20
2019-04-22T03:37:23.119Z,92.40
2019-04-22T03:39:46.263Z,92.50
2019-04-22T04:02:04.114Z,94.50
2019-04-22T04:07:14.980Z,95.20
2019-04-22T04:09:32.943Z,94.30
2019-04-22T04:12:04.111Z,94.20
2019-04-22T04:19:35.067Z,93.10
2019-04-22T04:32:11.805Z,93.60
2019-04-22T04:34:43.306Z,94.10
2019-04-22T04:40:20.914Z,93.90
2019-04-22T04:44:59.266Z,93.40
2019-04-22T04:50:05.882Z,92.70
2019-04-22T04:52:27.635Z,91.80
2019-04-22T04:57:05.042Z,90.80
2019-04-22T05:00:25.458Z,91.40
2019-04-22T05:04:56.207Z,87.90
2019-04-22T05:09:47.925Z,89.00
2019-04-22T05:14:41.519Z,86.80
2019-04-22T05:19:33.328Z,86.10
2019-04-22T05:27:10.861Z,83.50
2019-04-22T05:29:36.130Z,82.10
2019-04-22T05:32:01.481Z,81.30
2019-04-22T05:34:29.489Z,83.30
2019-04-22T05:37:01.188Z,82.50
2019-04-22T05:39:29.770Z,80.10
2019-04-22T05:42:03.667Z,78.70
2019-04-22T05:44:29.569Z,78.60
2019-04-22T05:47:01.378Z,77.70
2019-04-22T05:49:32.277Z,79.10
2019-04-22T05:51:54.912Z,78.90
2019-04-22T05:54:35.223Z,77.50
2019-04-22T05:57:08.310Z,78.20
2019-04-22T05:59:50.253Z,73.20
2019-04-22T06:02:33.869Z,74.80
2019-04-22T06:04:54.523Z,72.40
2019-04-22T06:10:24.426Z,70.10
2019-04-22T06:12:46.170Z,68.80
2019-04-22T06:15:19.443Z,67.70
2019-04-22T06:17:57.585Z,66.60
2019-04-22T06:20:15.522Z,66.10
2019-04-22T06:22:54.242Z,66.00
2019-04-22T06:25:34.791Z,65.00
2019-04-22T06:28:04.911Z,65.80
2019-04-22T06:30:23.340Z,64.40
2019-04-22T06:32:53.400Z,64.30
2019-04-22T06:35:34.566Z,64.80
2019-04-22T06:40:26.088Z,63.10
2019-04-22T06:43:03.197Z,64.10
2019-04-22T06:45:29.222Z,63.80
2019-04-22T06:48:19.140Z,64.70
2019-04-22T06:50:40.507Z,64.70
2019-04-22T06:53:16.945Z,65.00
2019-04-22T06:55:51.680Z,64.50
2019-04-22T06:58:21.550Z,63.60
2019-04-22T07:00:55.774Z,62.70
2019-04-22T07:05:52.277Z,61.50
2019-04-22T07:10:50.362Z,58.50
2019-04-22T07:13:23.395Z,57.80
2019-04-22T07:15:50.330Z,58.00
2019-04-22T07:18:26.143Z,58.10
2019-04-22T07:23:24.775Z,58.30
2019-04-22T07:25:41.215Z,57.40
2019-04-22T07:28:14.518Z,57.30
2019-04-22T07:30:40.756Z,55.80
2019-04-22T07:36:03.122Z,55.50
2019-04-22T07:38:14.322Z,56.70
2019-04-22T07:40:43.879Z,56.30
2019-04-22T07:43:14.918Z,56.70
2019-04-22T07:45:44.277Z,55.10
2019-04-22T07:48:20.787Z,55.40
2019-04-22T07:50:49.338Z,53.10
2019-04-22T07:53:04.827Z,53.00
2019-04-22T07:55:38.152Z,52.30
2019-04-22T07:58:18.597Z,52.80
2019-04-22T08:00:39.133Z,52.30
2019-04-22T08:03:23.885Z,51.10
2019-04-22T08:05:52.197Z,51.80
2019-04-22T08:08:20.080Z,53.50
2019-04-22T08:13:11.860Z,50.40
2019-04-22T08:15:52.031Z,51.10
2019-04-22T08:18:22.187Z,50.20
2019-04-22T08:20:58.486Z,50.90
2019-04-22T08:25:43.168Z,51.30
2019-04-22T08:28:25.613Z,52.40
2019-04-22T08:30:41.407Z,50.70
2019-04-22T08:33:18.651Z,51.20
2019-04-22T08:36:00.077Z,49.90
2019-04-22T08:38:11.591Z,50.00
2019-04-22T08:40:49.494Z,48.80
2019-04-22T08:45:44.339Z,47.00
2019-04-22T08:48:09.530Z,48.80
2019-04-22T08:50:38.906Z,47.10
2019-04-22T08:53:09.536Z,48.10
2019-04-22T08:55:43.171Z,46.90
2019-04-22T09:00:37.522Z,46.80
2019-04-22T09:03:04.801Z,45.70
2019-04-22T09:05:52.140Z,47.00
2019-04-22T09:08:05.885Z,47.20
2019-04-22T09:10:32.882Z,46.00
2019-04-22T09:15:26.365Z,46.30
2019-04-22T09:17:57.139Z,47.40
2019-04-22T09:20:20.471Z,44.20
2019-04-22T09:22:56.471Z,45.90
2019-04-22T09:25:17.054Z,44.90
2019-04-22T09:27:51.155Z,43.10
2019-04-22T09:30:20.468Z,47.20
2019-04-22T09:32:45.243Z,43.30
2019-04-22T09:35:12.356Z,43.70
2019-04-22T09:37:50.020Z,45.10
2019-04-22T09:40:15.283Z,43.60
2019-04-22T09:42:44.026Z,44.00
2019-04-22T09:45:11.649Z,42.60
2019-04-22T09:50:09.894Z,45.80
2019-04-22T09:52:43.567Z,45.40
2019-04-22T09:55:12.486Z,42.80
2019-04-22T09:57:43.186Z,42.80
2019-04-22T10:02:41.256Z,41.30
2019-04-22T10:05:07.544Z,42.20
2019-04-22T10:07:31.905Z,41.70
2019-04-22T10:12:32.146Z,43.60
2019-04-22T10:14:53.963Z,41.60
2019-04-22T10:17:25.873Z,41.30
2019-04-22T10:19:55.710Z,40.20
2019-04-22T10:22:32.480Z,40.50
2019-04-22T10:24:53.223Z,41.10
2019-04-22T10:27:24.311Z,41.80
2019-04-22T10:29:54.140Z,42.20
2019-04-22T10:32:17.576Z,41.60
2019-04-22T10:34:33.939Z,40.60
2019-04-22T10:36:58.741Z,43.20
2019-04-22T10:39:35.273Z,40.20
2019-04-22T10:41:59.751Z,42.00
2019-04-22T10:44:23.764Z,39.90
2019-04-22T10:46:53.938Z,42.40
2019-04-22T10:49:22.393Z,43.10
2019-04-22T10:51:51.107Z,43.60
2019-04-22T10:54:23.251Z,41.50
2019-04-22T10:56:49.027Z,41.30
2019-04-22T10:59:18.589Z,39.50
2019-04-22T11:01:46.567Z,40.50
2019-04-22T11:04:15.783Z,38.50
2019-04-22T11:06:50.703Z,41.90
2019-04-22T11:09:12.466Z,40.50
2019-04-22T11:11:48.932Z,43.30
2019-04-22T11:14:10.603Z,41.80
2019-04-22T11:16:39.425Z,42.00
2019-04-22T11:19:09.786Z,40.10
2019-04-22T11:21:39.097Z,42.50
2019-04-22T11:24:08.523Z,42.50
2019-04-22T11:26:38.745Z,40.70
2019-04-22T11:29:09.940Z,40.50
2019-04-22T11:31:38.817Z,41.60
2019-04-22T11:35:45.858Z,41.90
2019-04-22T11:36:40.831Z,40.10
2019-04-22T11:39:12.915Z,40.10
2019-04-22T11:41:42.130Z,39.50
2019-04-22T11:44:11.488Z,39.40
2019-04-22T11:46:43.140Z,40.00
2019-04-22T11:49:10.129Z,40.50
2019-04-22T11:51:40.211Z,41.40
2019-04-22T11:54:08.284Z,42.20
2019-04-22T11:56:35.154Z,40.90
2019-04-22T11:59:02.707Z,41.30
2019-04-22T12:01:42.673Z,39.80
2019-04-22T12:04:41.231Z,40.20
2019-04-22T12:07:09.031Z,40.70
2019-04-22T12:09:37.458Z,40.50
2019-04-22T12:12:07.687Z,41.10
2019-04-22T12:14:36.210Z,41.40
2019-04-22T12:17:03.608Z,40.60
2019-04-22T12:19:31.312Z,40.20
2019-04-22T12:22:02.888Z,41.20
2019-04-22T12:24:30.310Z,41.40
2019-04-22T12:27:00.225Z,41.00
2019-04-22T12:29:31.023Z,40.70
2019-04-22T12:32:00.257Z,40.40
2019-04-22T12:34:29.205Z,40.70
2019-04-22T12:37:00.382Z,42.50
2019-04-22T12:39:31.739Z,40.20
2019-04-22T12:42:02.775Z,39.50
2019-04-22T12:44:32.700Z,38.80
2019-04-22T12:47:03.635Z,39.60
2019-04-22T12:49:32.256Z,39.60
2019-04-22T12:52:01.065Z,40.70
2019-04-22T12:54:31.143Z,42.40
2019-04-22T12:57:03.964Z,38.40
2019-04-22T12:59:31.903Z,39.70
2019-04-22T13:02:00.677Z,38.80
2019-04-22T13:04:27.932Z,37.50
2019-04-22T13:06:55.528Z,38.70
2019-04-22T13:09:23.105Z,38.10
2019-04-22T13:11:51.029Z,39.80
2019-04-22T13:14:21.108Z,38.60
2019-04-22T13:16:49.300Z,40.80
2019-04-22T13:19:18.888Z,40.00
2019-04-22T13:21:47.187Z,40.10
2019-04-22T13:24:19.532Z,40.50
2019-04-22T13:26:50.943Z,39.20
2019-04-22T13:29:19.240Z,40.40
2019-04-22T13:31:48.771Z,38.20
2019-04-22T13:34:26.126Z,37.40
2019-04-22T13:36:51.337Z,37.10
2019-04-22T13:39:21.298Z,38.60
2019-04-22T13:41:53.895Z,39.00
2019-04-22T13:44:19.301Z,38.00
2019-04-22T13:47:08.170Z,38.60
2019-04-22T13:49:54.049Z,38.00
2019-04-22T13:52:21.043Z,38.90
2019-04-22T13:57:10.563Z,39.90
2019-04-22T13:59:26.687Z,39.20
2019-04-22T14:01:50.670Z,40.80
2019-04-22T14:04:18.565Z,40.20
2019-04-22T14:06:46.903Z,40.20
2019-04-22T14:09:16.653Z,41.90
2019-04-22T14:11:49.719Z,38.10
2019-04-22T14:14:12.627Z,39.60
2019-04-22T14:16:42.768Z,39.30
2019-04-22T14:19:11.926Z,38.50
2019-04-22T14:21:44.274Z,38.70
2019-04-22T14:24:14.004Z,39.90
2019-04-22T14:26:52.358Z,39.80
2019-04-22T14:29:09.665Z,40.00
2019-04-22T14:31:36.335Z,40.60
2019-04-22T14:34:05.395Z,41.20
2019-04-22T14:36:37.128Z,39.20
2019-04-22T14:39:05.966Z,39.90
2019-04-22T14:44:23.218Z,39.20
2019-04-22T14:45:04.929Z,40.90
2019-04-22T14:47:03.498Z,39.90
2019-04-22T14:49:28.842Z,39.10
2019-04-22T14:52:05.276Z,38.90
2019-04-22T14:54:28.438Z,40.40
2019-04-22T14:56:40.452Z,39.30
2019-04-22T14:59:09.292Z,39.30
2019-04-22T15:01:39.685Z,39.40
2019-04-22T15:04:05.468Z,39.60
2019-04-22T15:06:37.949Z,39.00
2019-04-22T15:09:07.993Z,39.10
2019-04-22T15:11:50.975Z,37.90
2019-04-22T15:14:05.512Z,38.90
2019-04-22T15:16:36.347Z,38.90
2019-04-22T15:19:07.694Z,39.60
2019-04-22T15:21:34.701Z,38.30
2019-04-22T15:24:04.726Z,37.30
2019-04-22T15:26:35.306Z,37.80
2019-04-22T15:29:07.185Z,38.20
2019-04-22T15:31:35.462Z,37.60
2019-04-22T15:34:04.612Z,38.30
2019-04-22T15:36:32.392Z,37.80
2019-04-22T15:38:59.670Z,38.50
2019-04-22T15:41:28.548Z,37.50
2019-04-22T15:43:55.660Z,38.10
2019-04-22T15:46:23.525Z,37.60
2019-04-22T15:48:53.733Z,37.30
2019-04-22T15:54:09.887Z,37.30
2019-04-22T15:56:39.033Z,36.00
2019-04-22T15:59:17.279Z,36.50
2019-04-22T16:01:40.970Z,36.30
2019-04-22T16:04:05.855Z,37.20
2019-04-22T16:06:32.953Z,37.60
2019-04-22T16:09:04.656Z,39.20
2019-04-22T16:11:35.967Z,39.60
2019-04-22T16:14:06.452Z,40.30
2019-04-22T16:16:34.740Z,39.80
2019-04-22T16:19:04.431Z,39.10
2019-04-22T16:21:40.481Z,39.70
2019-04-22T16:24:02.566Z,39.00
2019-04-22T16:26:32.594Z,38.80
2019-04-22T17:00:18.779Z,40.90
2019-04-22T17:02:48.437Z,41.20
2019-04-22T17:05:19.807Z,41.90
2019-04-22T17:07:47.815Z,41.70
2019-04-22T17:10:15.542Z,41.50
2019-04-22T17:12:50.713Z,42.10
2019-04-22T17:15:24.244Z,41.40
2019-04-22T17:18:27.481Z,41.90
2019-04-22T17:23:27.641Z,41.80
2019-04-22T17:26:14.580Z,42.00
2019-04-22T18:00:28.185Z,43.30
2019-04-22T18:02:48.674Z,43.00
2019-04-22T18:05:32.182Z,43.40
2019-04-22T18:08:13.941Z,43.10
2019-04-22T18:10:40.733Z,43.50
2019-04-22T18:13:33.416Z,43.40
2019-04-22T18:16:02.541Z,43.20
2019-04-22T18:18:35.552Z,43.30
2019-04-22T18:20:56.381Z,43.60
2019-04-22T18:23:14.584Z,43.80
2019-04-22T18:26:00.332Z,43.80
2019-04-22T18:28:30.098Z,43.80
2019-04-22T18:30:52.948Z,43.80
2019-04-22T18:33:24.210Z,44.40
2019-04-22T18:35:51.549Z,44.90
2019-04-22T18:41:02.191Z,45.80
2019-04-22T18:43:39.442Z,45.70
2019-04-22T18:46:06.550Z,46.30
2019-04-22T18:48:27.562Z,46.20
2019-04-22T18:50:59.291Z,47.50
2019-04-22T18:53:29.932Z,47.20
2019-04-22T18:55:56.902Z,47.40
2019-04-22T18:58:24.628Z,47.50
2019-04-22T19:00:37.306Z,48.10
2019-04-22T19:03:13.566Z,47.70
2019-04-22T19:05:51.712Z,48.20
2019-04-22T19:10:57.694Z,48.40
2019-04-22T19:16:19.697Z,48.90
2019-04-22T19:18:23.997Z,48.50
2019-04-22T19:20:53.772Z,49.20
2019-04-22T19:23:17.453Z,48.70
2019-04-22T19:25:42.327Z,49.00
2019-04-22T19:28:27.176Z,49.10
2019-04-22T19:30:50.880Z,49.20
2019-04-22T19:33:18.950Z,49.40
2019-04-22T19:35:40.073Z,49.50
2019-04-22T19:38:09.313Z,49.50
2019-04-22T19:40:56.264Z,49.30
2019-04-22T19:43:18.196Z,49.40
2019-04-22T19:45:43.044Z,49.70
2019-04-22T19:48:28.288Z,50.00
2019-04-22T19:50:54.437Z,50.00
2019-04-22T19:53:18.922Z,49.70
2019-04-22T19:55:45.138Z,49.40
2019-04-22T19:58:10.803Z,49.20
2019-04-22T20:00:36.148Z,49.40
2019-04-22T20:03:18.560Z,49.40
2019-04-22T20:05:43.737Z,49.70
2019-04-22T20:08:17.825Z,49.40
2019-04-22T20:10:44.409Z,49.40
2019-04-22T20:13:15.081Z,49.50
2019-04-22T20:15:38.223Z,49.20
2019-04-22T20:20:58.366Z,49.30
2019-04-22T20:23:11.553Z,49.60
2019-04-22T20:25:40.831Z,49.40
2019-04-22T20:28:17.823Z,49.70
2019-04-22T20:30:48.733Z,49.60
2019-04-22T20:33:08.696Z,49.50
2019-04-22T20:38:29.689Z,49.30
2019-04-22T20:41:08.864Z,48.40
2019-04-22T20:43:50.221Z,48.50
2019-04-22T20:46:19.109Z,49.40
2019-04-22T20:48:50.277Z,49.70
2019-04-22T20:51:17.133Z,49.40
2019-04-22T20:53:48.021Z,49.00
2019-04-22T20:56:14.671Z,48.70
2019-04-22T20:58:46.688Z,48.90
2019-04-22T21:01:11.690Z,48.80
2019-04-22T21:03:37.344Z,49.00
2019-04-22T21:06:14.878Z,49.10
2019-04-22T21:08:47.518Z,49.40
2019-04-22T21:11:19.422Z,49.10
2019-04-22T21:13:50.443Z,49.10
2019-04-22T21:16:21.994Z,48.40
2019-04-22T21:18:44.616Z,48.90
2019-04-22T21:21:20.416Z,49.80
2019-04-22T21:23:38.978Z,49.50
2019-04-22T21:26:13.009Z,49.10
2019-04-22T21:28:44.586Z,49.20
2019-04-22T21:31:10.237Z,49.10
2019-04-22T21:33:42.896Z,48.50
2019-04-22T21:36:30.052Z,48.90
2019-04-22T21:38:39.325Z,49.10
2019-04-22T21:41:09.991Z,48.30
2019-04-22T21:43:39.720Z,48.60
2019-04-22T21:46:10.479Z,48.70
2019-04-22T21:48:42.158Z,48.40
2019-04-22T21:51:04.512Z,48.80
2019-04-22T21:53:37.943Z,48.50
2019-04-22T21:56:11.609Z,48.80
2019-04-22T21:58:33.206Z,48.80
2019-04-22T22:01:12.998Z,48.90
2019-04-22T22:03:35.392Z,48.80
2019-04-22T22:05:48.077Z,48.60
2019-04-22T22:08:30.165Z,48.70
2019-04-22T22:10:52.281Z,48.70
2019-04-22T22:13:27.059Z,48.50
2019-04-22T22:15:51.103Z,49.00
2019-04-22T22:18:16.521Z,49.20
2019-04-22T22:21:01.004Z,49.00
2019-04-22T22:25:43.710Z,49.60
2019-04-22T22:28:29.430Z,48.90
2019-04-22T22:33:10.452Z,49.60
2019-04-22T22:35:35.987Z,49.20
2019-04-22T22:38:05.476Z,49.70
2019-04-22T22:40:23.209Z,49.70
2019-04-22T22:42:55.881Z,49.20
2019-04-22T22:45:33.729Z,48.90
2019-04-22T22:48:14.928Z,49.10
2019-04-22T22:50:40.298Z,49.50
2019-04-22T22:55:41.000Z,49.10
2019-04-22T22:58:11.474Z,49.40
2019-04-22T23:00:33.926Z,49.20
2019-04-22T23:05:37.615Z,49.40
2019-04-22T23:08:07.784Z,50.00
2019-04-22T23:10:34.120Z,49.30
2019-04-22T23:15:25.331Z,49.30
2019-04-22T23:17:38.964Z,49.20
2019-04-22T23:20:05.369Z,50.10
2019-04-22T23:22:58.739Z,49.90
2019-04-22T23:25:22.323Z,49.80
2019-04-22T23:27:42.144Z,49.70
2019-04-22T23:30:06.484Z,49.90
2019-04-22T23:32:35.770Z,50.90
2019-04-22T23:35:14.703Z,50.50
2019-04-22T23:37:35.273Z,50.10
2019-04-22T23:40:17.283Z,50.10
2019-04-22T23:42:33.397Z,50.10
2019-04-22T23:45:12.288Z,49.60
2019-04-22T23:47:26.082Z,49.70
2019-04-22T23:50:01.396Z,49.90
2019-04-22T23:52:32.024Z,50.30
2019-04-22T23:55:02.148Z,50.80
2019-04-22T23:57:33.208Z,50.80
